Flight Track Log - Related Links

Times and Time Zones

All times are in EDT time to prevent confusion due to time zone crossing. See the ASQ5421 flight status page for this flight to view local times or setup timezone preferences in your user account.

Time Position Orientation Groundspeed Altitude Reporting Facility
EDT Latitude Longitude Course Direction KTS MPH feet Rate Location/Type
Wed 12:08:58 PM 29.7078 -82.3139 310° West 173 199 1,600  Level Jacksonville Center
Wed 12:09:50 PM 29.7536 -82.3064 North 219 252 3,600 2,357 Climbing Jacksonville Center
Wed 12:10:50 PM 29.8228 -82.3300 344° North 225 259 6,000 2,550 Climbing Jacksonville Center
Wed 12:11:50 PM 29.8936 -82.3489 347° North 242 278 8,700 2,450 Climbing Jacksonville Center
Wed 12:12:50 PM 29.9689 -82.3747 343° North 265 305 10,900 1,900 Climbing Jacksonville Center
Wed 12:13:50 PM 30.0525 -82.4053 342° North 291 335 12,500 1,800 Climbing Jacksonville Center
Wed 12:14:50 PM 30.1406 -82.4314 346° North 315 362 14,500 2,000 Climbing Jacksonville Center
Wed 12:15:50 PM 30.2303 -82.4597 345° North 326 375 16,500 1,900 Climbing Jacksonville Center
Wed 12:16:50 PM 30.3203 -82.4908 343° North 326 375 18,300 1,550 Climbing Jacksonville Center
Wed 12:17:50 PM 30.4100 -82.5217 343° North 331 381 19,600 1,250 Climbing Jacksonville Center
Wed 12:18:50 PM 30.5083 -82.5503 346° North 342 394 20,800 1,200 Climbing Jacksonville Center
Wed 12:19:50 PM 30.6211 -82.5522 359° North 349 402 22,000 1,200 Climbing Jacksonville Center
Wed 12:20:50 PM 30.7172 -82.5783 347° North 360 414 23,200 1,000 Climbing Jacksonville Center
Wed 12:21:50 PM 30.8133 -82.6242 338° Northwest 360 414 24,000 650 Climbing Jacksonville Center
Wed 12:22:50 PM 30.9156 -82.6697 339° North 373 429 24,500 500 Climbing Jacksonville Center
Wed 12:23:50 PM 31.0242 -82.7058 344° North 386 444 25,000 250 Climbing Jacksonville Center
Wed 12:24:50 PM 31.1433 -82.7033 North 403 464 25,000  Level Jacksonville Center
Wed 12:25:50 PM 31.2561 -82.7078 358° North 408 470 25,000  Level Jacksonville Center
Wed 12:26:50 PM 31.3750 -82.7125 358° North 413 475 25,000  Level Jacksonville Center
Wed 12:27:50 PM 31.4858 -82.7197 357° North 413 475 25,000  Level Jacksonville Center
Wed 12:29:58 PM 31.7000 -82.7353 356° North 385 443 25,000  Level Atlanta Center
Wed 12:30:58 PM 31.8067 -82.7389 358° North 379 436 25,000  Level Atlanta Center
Wed 12:31:58 PM 31.9131 -82.7444 357° North 385 443 25,000  Level Atlanta Center
Wed 12:32:58 PM 32.0194 -82.7478 358° North 385 443 25,000  Level Atlanta Center
Wed 12:33:58 PM 32.1239 -82.7514 358° North 385 443 25,000  Level Atlanta Center
Wed 12:34:58 PM 32.2283 -82.7547 358° North 379 436 25,000  Level Atlanta Center
Wed 12:35:58 PM 32.3369 -82.7556 360° North 379 436 25,000  Level Atlanta Center
Wed 12:36:58 PM 32.4411 -82.7567 359° North 379 436 25,000  Level Atlanta Center
Wed 12:37:58 PM 32.5603 -82.7647 357° North 379 436 25,000  Level Atlanta Center
Wed 12:38:58 PM 32.6364 -82.8622 313° West 364 419 25,000  Level Atlanta Center
Wed 12:39:58 PM 32.7042 -82.9625 309° West 385 443 25,000  Level Atlanta Center
Wed 12:40:58 PM 32.7719 -83.0778 305° West 414 476 25,000  Level Atlanta Center
Wed 12:41:58 PM 32.8458 -83.1981 306° West 421 484 25,000  Level Atlanta Center
Wed 12:42:58 PM 32.9006 -83.2842 307° West 406 467 25,000 -1,050 Level Atlanta Center
Wed 12:43:58 PM 32.9533 -83.3728 305° West 358 412 22,900 -2,150 Descending Atlanta Center
Wed 12:44:58 PM 33.0058 -83.4592 306° West 333 383 20,700 -2,300 Descending Atlanta Center
Wed 12:45:58 PM 33.0606 -83.5481 306° West 322 371 18,300 -2,200 Descending Atlanta Center
Wed 12:46:58 PM 33.1089 -83.6297 305° West 305 351 16,300 -2,022 Descending Atlanta Center
Wed 12:47:30 PM 33.1333 -83.6833 299° West 299 344 15,200 -2,022 Descending Atlanta TRACON
Wed 12:48:30 PM 33.1833 -83.7500 312° West 288 331 13,200 -1,600 Descending Atlanta TRACON
Wed 12:49:30 PM 33.2333 -83.8333 306° West 277 319 12,000 -1,550 Descending Atlanta TRACON
Wed 12:50:30 PM 33.2833 -83.9000 312° West 277 319 10,100 -1,636 Descending Atlanta TRACON
Wed 12:50:58 PM 33.2953 -83.9244 300° West 281 323 9,600 -1,295 Descending Atlanta Center
Wed 12:51:58 PM 33.3414 -83.9842 313° West 264 304 8,200 -1,850 Descending Atlanta Center
Wed 12:52:58 PM 33.4019 -84.0189 334° Northwest 240 276 5,900 -2,100 Descending Atlanta Center
Wed 12:53:58 PM 33.4561 -84.0611 327° Northwest 240 276 4,000 -1,050 Descending Atlanta Center
Wed 12:54:58 PM 33.5103 -84.1111 322° Northwest 240 276 3,800 -550 Descending Atlanta Center
Wed 12:55:58 PM 33.5606 -84.1558 323° Northwest 228 262 2,900 -522 Descending Atlanta Center
Wed 12:56:30 PM 33.5833 -84.1833 315° West 236 272 3,000 65 Climbing Atlanta TRACON
Wed 12:57:30 PM 33.6167 -84.2500 301° West 219 252 3,000 -400 Level Atlanta TRACON
Wed 12:59:30 PM 33.6167 -84.3667 270° West 147 169 1,800 -600 Descending Atlanta TRACON
Wed 01:01:00 PM 33.6367 -84.4279 270° West  Level Estimated
Wed 01:08:00 PM 33.6367 -84.4279 64° Northeast  Level Estimated
Wed 01:09:00 PM 33.6367 -84.4279 64° Northeast  Level Estimated

Login

Don't have an account? Register now (free) for customized features, flight alerts, and more!